sensor_id;sensor_type;location;lat;lon;timestamp;temperature;humidity
69162;DHT22;56269;51.738;21.652;2022-09-29T00:00:33;8.66;99.99
69162;DHT22;56269;51.738;21.652;2022-09-29T00:03:20;8.65;99.99
69162;DHT22;56269;51.738;21.652;2022-09-29T00:05:48;8.66;99.99
69162;DHT22;56269;51.738;21.652;2022-09-29T00:08:15;8.63;99.99
69162;DHT22;56269;51.738;21.652;2022-09-29T00:10:41;8.66;99.99
69162;DHT22;56269;51.738;21.652;2022-09-29T00:13:07;8.60;99.99
69162;DHT22;56269;51.738;21.652;2022-09-29T00:15:34;8.65;99.99
69162;DHT22;56269;51.738;21.652;2022-09-29T00:18:00;8.65;99.99
69162;DHT22;56269;51.738;21.652;2022-09-29T00:20:26;8.63;99.99
69162;DHT22;56269;51.738;21.652;2022-09-29T00:22:52;8.60;99.99
69162;DHT22;56269;51.738;21.652;2022-09-29T00:25:18;8.66;99.99
69162;DHT22;56269;51.738;21.652;2022-09-29T00:27:44;8.67;99.99
69162;DHT22;56269;51.738;21.652;2022-09-29T00:30:11;8.66;99.99
69162;DHT22;56269;51.738;21.652;2022-09-29T00:32:37;8.66;99.99
69162;DHT22;56269;51.738;21.652;2022-09-29T00:35:03;8.65;99.99
69162;DHT22;56269;51.738;21.652;2022-09-29T00:37:29;8.66;99.99
69162;DHT22;56269;51.738;21.652;2022-09-29T00:39:55;8.70;99.99
69162;DHT22;56269;51.738;21.652;2022-09-29T00:42:22;8.66;99.99
69162;DHT22;56269;51.738;21.652;2022-09-29T00:45:19;8.62;99.99
69162;DHT22;56269;51.738;21.652;2022-09-29T00:48:05;8.66;99.99
69162;DHT22;56269;51.738;21.652;2022-09-29T00:50:44;8.62;99.99
69162;DHT22;56269;51.738;21.652;2022-09-29T00:53:12;8.57;99.99
69162;DHT22;56269;51.738;21.652;2022-09-29T00:55:49;8.59;99.99
69162;DHT22;56269;51.738;21.652;2022-09-29T01:00:52;8.57;99.99
69162;DHT22;56269;51.738;21.652;2022-09-29T01:03:20;8.57;99.99
69162;DHT22;56269;51.738;21.652;2022-09-29T01:06:08;8.55;99.99
69162;DHT22;56269;51.738;21.652;2022-09-29T01:08:59;8.55;99.99
69162;DHT22;56269;51.738;21.652;2022-09-29T01:11:26;8.59;99.99
69162;DHT22;56269;51.738;21.652;2022-09-29T01:13:55;8.63;99.99
69162;DHT22;56269;51.738;21.652;2022-09-29T01:16:26;8.57;99.99
69162;DHT22;56269;51.738;21.652;2022-09-29T01:18:52;8.60;99.99
69162;DHT22;56269;51.738;21.652;2022-09-29T01:35:22;8.73;99.99
69162;DHT22;56269;51.738;21.652;2022-09-29T01:38:07;8.77;99.99
69162;DHT22;56269;51.738;21.652;2022-09-29T01:43:36;8.69;99.99
69162;DHT22;56269;51.738;21.652;2022-09-29T01:46:12;8.66;99.99
69162;DHT22;56269;51.738;21.652;2022-09-29T01:48:47;8.67;99.99
69162;DHT22;56269;51.738;21.652;2022-09-29T01:51:20;8.69;99.99
69162;DHT22;56269;51.738;21.652;2022-09-29T01:53:53;8.69;99.99
69162;DHT22;56269;51.738;21.652;2022-09-29T01:56:46;8.70;99.99
69162;DHT22;56269;51.738;21.652;2022-09-29T01:59:56;8.66;99.99
69162;DHT22;56269;51.738;21.652;2022-09-29T02:02:47;8.67;99.99
69162;DHT22;56269;51.738;21.652;2022-09-29T02:08:21;8.70;99.99
69162;DHT22;56269;51.738;21.652;2022-09-29T02:11:06;8.70;99.99
69162;DHT22;56269;51.738;21.652;2022-09-29T02:16:24;8.63;99.99
69162;DHT22;56269;51.738;21.652;2022-09-29T02:18:54;8.60;99.99
69162;DHT22;56269;51.738;21.652;2022-09-29T02:21:21;8.66;99.99
69162;DHT22;56269;51.738;21.652;2022-09-29T02:23:48;8.70;99.99
69162;DHT22;56269;51.738;21.652;2022-09-29T02:26:16;8.70;99.99
69162;DHT22;56269;51.738;21.652;2022-09-29T02:28:44;8.66;99.99
69162;DHT22;56269;51.738;21.652;2022-09-29T02:31:10;8.67;99.99
69162;DHT22;56269;51.738;21.652;2022-09-29T02:33:37;8.66;99.99
69162;DHT22;56269;51.738;21.652;2022-09-29T02:36:18;8.69;99.99
69162;DHT22;56269;51.738;21.652;2022-09-29T02:39:00;8.69;99.99
69162;DHT22;56269;51.738;21.652;2022-09-29T02:47:33;8.70;99.99
69162;DHT22;56269;51.738;21.652;2022-09-29T02:58:33;8.70;99.99
69162;DHT22;56269;51.738;21.652;2022-09-29T03:01:03;8.66;99.99
69162;DHT22;56269;51.738;21.652;2022-09-29T03:03:30;8.69;99.99
69162;DHT22;56269;51.738;21.652;2022-09-29T03:05:56;8.66;99.99
69162;DHT22;56269;51.738;21.652;2022-09-29T03:08:22;8.66;99.99
69162;DHT22;56269;51.738;21.652;2022-09-29T03:10:48;8.66;99.99
69162;DHT22;56269;51.738;21.652;2022-09-29T03:13:14;8.63;99.99
69162;DHT22;56269;51.738;21.652;2022-09-29T03:15:40;8.70;99.99
69162;DHT22;56269;51.738;21.652;2022-09-29T03:18:06;8.65;99.99
69162;DHT22;56269;51.738;21.652;2022-09-29T03:20:33;8.63;99.99
69162;DHT22;56269;51.738;21.652;2022-09-29T03:22:58;8.62;99.99
69162;DHT22;56269;51.738;21.652;2022-09-29T03:25:25;8.57;99.99
69162;DHT22;56269;51.738;21.652;2022-09-29T03:27:51;8.62;99.99
69162;DHT22;56269;51.738;21.652;2022-09-29T03:30:18;8.57;99.99
69162;DHT22;56269;51.738;21.652;2022-09-29T03:32:44;8.53;99.99
69162;DHT22;56269;51.738;21.652;2022-09-29T03:35:11;8.49;99.99
69162;DHT22;56269;51.738;21.652;2022-09-29T03:37:37;8.45;99.99
69162;DHT22;56269;51.738;21.652;2022-09-29T03:40:03;8.45;99.99
69162;DHT22;56269;51.738;21.652;2022-09-29T03:42:30;8.41;99.99
69162;DHT22;56269;51.738;21.652;2022-09-29T03:44:57;8.41;99.99
69162;DHT22;56269;51.738;21.652;2022-09-29T03:47:23;8.38;99.99
69162;DHT22;56269;51.738;21.652;2022-09-29T03:49:49;8.41;99.99
69162;DHT22;56269;51.738;21.652;2022-09-29T03:52:16;8.39;99.99
69162;DHT22;56269;51.738;21.652;2022-09-29T03:54:42;8.39;99.99
69162;DHT22;56269;51.738;21.652;2022-09-29T03:57:08;8.41;99.99
69162;DHT22;56269;51.738;21.652;2022-09-29T03:59:33;8.41;99.99
69162;DHT22;56269;51.738;21.652;2022-09-29T04:02:00;8.44;99.99
69162;DHT22;56269;51.738;21.652;2022-09-29T04:04:26;8.42;99.99
69162;DHT22;56269;51.738;21.652;2022-09-29T04:06:52;8.42;99.99
69162;DHT22;56269;51.738;21.652;2022-09-29T04:09:18;8.39;99.99
69162;DHT22;56269;51.738;21.652;2022-09-29T04:11:44;8.38;99.99
69162;DHT22;56269;51.738;21.652;2022-09-29T04:14:10;8.31;99.99
69162;DHT22;56269;51.738;21.652;2022-09-29T04:16:36;8.32;99.99
69162;DHT22;56269;51.738;21.652;2022-09-29T04:19:02;8.36;99.99
69162;DHT22;56269;51.738;21.652;2022-09-29T04:21:28;8.38;99.99
69162;DHT22;56269;51.738;21.652;2022-09-29T04:23:54;8.39;99.99
69162;DHT22;56269;51.738;21.652;2022-09-29T04:26:40;8.35;99.99
69162;DHT22;56269;51.738;21.652;2022-09-29T04:29:06;8.34;99.99
69162;DHT22;56269;51.738;21.652;2022-09-29T04:31:32;8.32;99.99
69162;DHT22;56269;51.738;21.652;2022-09-29T04:33:58;8.31;99.99
69162;DHT22;56269;51.738;21.652;2022-09-29T04:36:24;8.34;99.99
69162;DHT22;56269;51.738;21.652;2022-09-29T04:38:50;8.38;99.99
69162;DHT22;56269;51.738;21.652;2022-09-29T04:41:16;8.36;99.99
69162;DHT22;56269;51.738;21.652;2022-09-29T04:43:43;8.38;99.99
69162;DHT22;56269;51.738;21.652;2022-09-29T04:46:09;8.41;99.99
69162;DHT22;56269;51.738;21.652;2022-09-29T04:48:35;8.41;99.99
69162;DHT22;56269;51.738;21.652;2022-09-29T04:51:03;8.46;99.99
69162;DHT22;56269;51.738;21.652;2022-09-29T04:53:30;8.42;99.99
69162;DHT22;56269;51.738;21.652;2022-09-29T04:55:56;8.42;99.99
69162;DHT22;56269;51.738;21.652;2022-09-29T04:58:22;8.41;99.99
69162;DHT22;56269;51.738;21.652;2022-09-29T05:00:48;8.41;99.99
69162;DHT22;56269;51.738;21.652;2022-09-29T05:03:14;8.41;99.99
69162;DHT22;56269;51.738;21.652;2022-09-29T05:05:40;8.42;99.99
69162;DHT22;56269;51.738;21.652;2022-09-29T05:08:06;8.44;99.99
69162;DHT22;56269;51.738;21.652;2022-09-29T05:10:33;8.45;99.99
69162;DHT22;56269;51.738;21.652;2022-09-29T05:12:59;8.50;99.99
69162;DHT22;56269;51.738;21.652;2022-09-29T05:15:25;8.49;99.99
69162;DHT22;56269;51.738;21.652;2022-09-29T05:17:51;8.46;99.99
69162;DHT22;56269;51.738;21.652;2022-09-29T05:20:18;8.46;99.99
69162;DHT22;56269;51.738;21.652;2022-09-29T05:22:44;8.48;99.99
69162;DHT22;56269;51.738;21.652;2022-09-29T05:25:10;8.46;99.99
69162;DHT22;56269;51.738;21.652;2022-09-29T05:27:36;8.46;99.99
69162;DHT22;56269;51.738;21.652;2022-09-29T05:30:03;8.45;99.99
69162;DHT22;56269;51.738;21.652;2022-09-29T05:32:29;8.45;99.99
69162;DHT22;56269;51.738;21.652;2022-09-29T05:34:55;8.42;99.99
69162;DHT22;56269;51.738;21.652;2022-09-29T05:37:22;8.39;99.99
69162;DHT22;56269;51.738;21.652;2022-09-29T05:39:48;8.36;99.99
69162;DHT22;56269;51.738;21.652;2022-09-29T05:42:15;8.34;99.99
69162;DHT22;56269;51.738;21.652;2022-09-29T05:44:41;8.38;99.99
69162;DHT22;56269;51.738;21.652;2022-09-29T05:47:07;8.36;99.99
69162;DHT22;56269;51.738;21.652;2022-09-29T05:49:33;8.34;99.99
69162;DHT22;56269;51.738;21.652;2022-09-29T05:52:01;8.35;99.99
69162;DHT22;56269;51.738;21.652;2022-09-29T05:54:27;8.32;99.99
69162;DHT22;56269;51.738;21.652;2022-09-29T05:56:53;8.38;99.99
69162;DHT22;56269;51.738;21.652;2022-09-29T05:59:19;8.36;99.99
69162;DHT22;56269;51.738;21.652;2022-09-29T06:01:45;8.39;99.99
69162;DHT22;56269;51.738;21.652;2022-09-29T06:04:11;8.41;99.92
69162;DHT22;56269;51.738;21.652;2022-09-29T06:06:37;8.41;99.99
69162;DHT22;56269;51.738;21.652;2022-09-29T06:09:05;8.44;99.85
69162;DHT22;56269;51.738;21.652;2022-09-29T06:11:31;8.42;99.99
69162;DHT22;56269;51.738;21.652;2022-09-29T06:13:57;8.38;99.46
69162;DHT22;56269;51.738;21.652;2022-09-29T06:16:26;8.44;99.94
69162;DHT22;56269;51.738;21.652;2022-09-29T06:18:52;8.42;99.65
69162;DHT22;56269;51.738;21.652;2022-09-29T06:21:21;8.45;99.58
69162;DHT22;56269;51.738;21.652;2022-09-29T06:23:49;8.45;99.30
69162;DHT22;56269;51.738;21.652;2022-09-29T06:26:17;8.46;99.24
69162;DHT22;56269;51.738;21.652;2022-09-29T06:28:43;8.46;99.61
69162;DHT22;56269;51.738;21.652;2022-09-29T06:31:11;8.49;99.51
69162;DHT22;56269;51.738;21.652;2022-09-29T06:33:38;8.53;99.45
69162;DHT22;56269;51.738;21.652;2022-09-29T06:36:14;8.59;99.46
69162;DHT22;56269;51.738;21.652;2022-09-29T06:39:00;8.52;99.07
69162;DHT22;56269;51.738;21.652;2022-09-29T06:41:27;8.48;99.12
69162;DHT22;56269;51.738;21.652;2022-09-29T06:43:55;8.53;99.73
69162;DHT22;56269;51.738;21.652;2022-09-29T06:46:21;8.55;99.07
69162;DHT22;56269;51.738;21.652;2022-09-29T06:48:47;8.57;98.73
69162;DHT22;56269;51.738;21.652;2022-09-29T06:51:13;8.59;99.06
69162;DHT22;56269;51.738;21.652;2022-09-29T06:53:40;8.62;99.24
69162;DHT22;56269;51.738;21.652;2022-09-29T06:56:06;8.63;98.94
69162;DHT22;56269;51.738;21.652;2022-09-29T06:58:33;8.69;99.22
69162;DHT22;56269;51.738;21.652;2022-09-29T07:01:01;8.63;98.48
69162;DHT22;56269;51.738;21.652;2022-09-29T07:03:29;8.72;99.17
69162;DHT22;56269;51.738;21.652;2022-09-29T07:05:56;8.80;99.15
69162;DHT22;56269;51.738;21.652;2022-09-29T07:08:22;8.91;99.30
69162;DHT22;56269;51.738;21.652;2022-09-29T07:10:48;9.04;99.27
69162;DHT22;56269;51.738;21.652;2022-09-29T07:13:14;9.04;98.30
69162;DHT22;56269;51.738;21.652;2022-09-29T07:15:40;9.07;97.90
69162;DHT22;56269;51.738;21.652;2022-09-29T07:18:06;8.97;97.69
69162;DHT22;56269;51.738;21.652;2022-09-29T07:20:32;9.01;98.02
69162;DHT22;56269;51.738;21.652;2022-09-29T07:23:00;9.06;98.81
69162;DHT22;56269;51.738;21.652;2022-09-29T07:25:26;9.03;97.48
69162;DHT22;56269;51.738;21.652;2022-09-29T07:27:52;9.03;97.81
69162;DHT22;56269;51.738;21.652;2022-09-29T07:30:19;9.10;97.70
69162;DHT22;56269;51.738;21.652;2022-09-29T07:32:45;9.18;98.02
69162;DHT22;56269;51.738;21.652;2022-09-29T07:35:11;9.23;97.62
69162;DHT22;56269;51.738;21.652;2022-09-29T07:37:37;9.31;96.76
69162;DHT22;56269;51.738;21.652;2022-09-29T07:40:03;9.34;96.22
69162;DHT22;56269;51.738;21.652;2022-09-29T07:42:29;9.38;95.42
69162;DHT22;56269;51.738;21.652;2022-09-29T07:44:56;9.45;95.67
69162;DHT22;56269;51.738;21.652;2022-09-29T07:47:22;9.48;97.00
69162;DHT22;56269;51.738;21.652;2022-09-29T07:49:48;9.47;95.81
69162;DHT22;56269;51.738;21.652;2022-09-29T07:52:14;9.55;96.00
69162;DHT22;56269;51.738;21.652;2022-09-29T07:54:40;9.52;95.47
69162;DHT22;56269;51.738;21.652;2022-09-29T07:57:06;9.51;95.39
69162;DHT22;56269;51.738;21.652;2022-09-29T07:59:33;9.58;95.75
69162;DHT22;56269;51.738;21.652;2022-09-29T08:01:58;9.63;95.94
69162;DHT22;56269;51.738;21.652;2022-09-29T08:04:24;9.61;94.62
69162;DHT22;56269;51.738;21.652;2022-09-29T08:06:51;9.68;94.37
69162;DHT22;56269;51.738;21.652;2022-09-29T08:09:16;9.69;94.30
69162;DHT22;56269;51.738;21.652;2022-09-29T08:11:42;9.85;95.49
69162;DHT22;56269;51.738;21.652;2022-09-29T08:14:10;9.85;93.69
69162;DHT22;56269;51.738;21.652;2022-09-29T08:16:36;9.72;94.16
69162;DHT22;56269;51.738;21.652;2022-09-29T08:19:04;9.78;94.37
69162;DHT22;56269;51.738;21.652;2022-09-29T08:21:31;9.81;94.03
69162;DHT22;56269;51.738;21.652;2022-09-29T08:24:03;9.90;93.47
69162;DHT22;56269;51.738;21.652;2022-09-29T08:26:34;9.85;91.85
69162;DHT22;56269;51.738;21.652;2022-09-29T08:29:01;9.86;93.63
69162;DHT22;56269;51.738;21.652;2022-09-29T08:31:28;9.92;93.39
69162;DHT22;56269;51.738;21.652;2022-09-29T08:33:56;10.00;93.78
69162;DHT22;56269;51.738;21.652;2022-09-29T08:36:24;9.98;92.81
69162;DHT22;56269;51.738;21.652;2022-09-29T08:38:51;10.09;92.09
69162;DHT22;56269;51.738;21.652;2022-09-29T08:44:39;10.12;92.19
69162;DHT22;56269;51.738;21.652;2022-09-29T08:49:58;10.02;92.15
69162;DHT22;56269;51.738;21.652;2022-09-29T08:52:29;10.12;91.89
69162;DHT22;56269;51.738;21.652;2022-09-29T08:55:24;10.20;91.47
69162;DHT22;56269;51.738;21.652;2022-09-29T08:57:50;10.29;90.00
69162;DHT22;56269;51.738;21.652;2022-09-29T09:00:18;10.44;90.54
69162;DHT22;56269;51.738;21.652;2022-09-29T09:08:35;10.91;90.39
69162;DHT22;56269;51.738;21.652;2022-09-29T09:11:23;11.16;89.37
69162;DHT22;56269;51.738;21.652;2022-09-29T09:19:06;10.95;87.97
69162;DHT22;56269;51.738;21.652;2022-09-29T09:21:43;11.04;89.98
69162;DHT22;56269;51.738;21.652;2022-09-29T09:26:58;11.00;88.14
69162;DHT22;56269;51.738;21.652;2022-09-29T09:29:35;10.94;87.19
69162;DHT22;56269;51.738;21.652;2022-09-29T09:32:07;10.94;88.25
69162;DHT22;56269;51.738;21.652;2022-09-29T09:34:38;11.00;86.32
69162;DHT22;56269;51.738;21.652;2022-09-29T09:37:24;11.04;86.77
69162;DHT22;56269;51.738;21.652;2022-09-29T09:40:12;11.29;86.81
69162;DHT22;56269;51.738;21.652;2022-09-29T09:42:42;11.45;84.68
69162;DHT22;56269;51.738;21.652;2022-09-29T09:45:28;11.33;86.54
69162;DHT22;56269;51.738;21.652;2022-09-29T09:48:32;11.58;85.89
69162;DHT22;56269;51.738;21.652;2022-09-29T09:54:23;11.74;85.95
69162;DHT22;56269;51.738;21.652;2022-09-29T09:59:40;11.87;84.40
69162;DHT22;56269;51.738;21.652;2022-09-29T10:02:17;11.84;82.90
69162;DHT22;56269;51.738;21.652;2022-09-29T10:04:47;11.83;82.15
69162;DHT22;56269;51.738;21.652;2022-09-29T10:07:14;11.82;83.35
69162;DHT22;56269;51.738;21.652;2022-09-29T10:09:41;11.73;83.07
69162;DHT22;56269;51.738;21.652;2022-09-29T10:12:15;11.83;81.28
69162;DHT22;56269;51.738;21.652;2022-09-29T10:14:56;11.79;82.12
69162;DHT22;56269;51.738;21.652;2022-09-29T10:17:27;12.05;82.62
69162;DHT22;56269;51.738;21.652;2022-09-29T10:20:00;12.04;82.45
69162;DHT22;56269;51.738;21.652;2022-09-29T10:22:29;11.93;81.31
69162;DHT22;56269;51.738;21.652;2022-09-29T10:25:06;12.00;83.30
69162;DHT22;56269;51.738;21.652;2022-09-29T10:27:35;11.90;82.07
69162;DHT22;56269;51.738;21.652;2022-09-29T10:30:18;12.24;81.03
69162;DHT22;56269;51.738;21.652;2022-09-29T10:32:45;12.45;79.38
69162;DHT22;56269;51.738;21.652;2022-09-29T10:37:42;12.61;79.64
69162;DHT22;56269;51.738;21.652;2022-09-29T10:40:18;12.31;77.62
69162;DHT22;56269;51.738;21.652;2022-09-29T10:42:49;12.13;80.58
69162;DHT22;56269;51.738;21.652;2022-09-29T10:45:27;12.10;80.45
69162;DHT22;56269;51.738;21.652;2022-09-29T10:50:27;11.95;81.60
69162;DHT22;56269;51.738;21.652;2022-09-29T10:52:59;12.01;80.45
69162;DHT22;56269;51.738;21.652;2022-09-29T10:55:28;12.13;81.46
69162;DHT22;56269;51.738;21.652;2022-09-29T10:58:23;12.41;79.46
69162;DHT22;56269;51.738;21.652;2022-09-29T11:01:11;12.33;79.39
69162;DHT22;56269;51.738;21.652;2022-09-29T11:03:44;12.21;78.53
69162;DHT22;56269;51.738;21.652;2022-09-29T11:06:12;12.25;80.34
69162;DHT22;56269;51.738;21.652;2022-09-29T11:08:56;12.27;80.63
69162;DHT22;56269;51.738;21.652;2022-09-29T11:11:32;12.52;79.45
69162;DHT22;56269;51.738;21.652;2022-09-29T11:13:59;12.28;79.17
69162;DHT22;56269;51.738;21.652;2022-09-29T11:19:14;12.85;78.07
69162;DHT22;56269;51.738;21.652;2022-09-29T11:30:19;12.55;77.34
69162;DHT22;56269;51.738;21.652;2022-09-29T11:33:04;12.69;81.11
69162;DHT22;56269;51.738;21.652;2022-09-29T11:38:41;12.78;78.72
69162;DHT22;56269;51.738;21.652;2022-09-29T11:41:22;12.74;78.13
69162;DHT22;56269;51.738;21.652;2022-09-29T11:47:03;12.38;78.81
69162;DHT22;56269;51.738;21.652;2022-09-29T11:57:39;12.35;79.31
69162;DHT22;56269;51.738;21.652;2022-09-29T12:00:13;12.16;80.59
69162;DHT22;56269;51.738;21.652;2022-09-29T12:05:48;12.23;79.12
69162;DHT22;56269;51.738;21.652;2022-09-29T12:11:07;12.08;79.27
69162;DHT22;56269;51.738;21.652;2022-09-29T12:13:44;12.07;78.97
69162;DHT22;56269;51.738;21.652;2022-09-29T12:16:19;12.04;78.72
69162;DHT22;56269;51.738;21.652;2022-09-29T12:18:50;12.20;78.47
69162;DHT22;56269;51.738;21.652;2022-09-29T12:21:29;12.33;79.28
69162;DHT22;56269;51.738;21.652;2022-09-29T12:23:57;12.45;77.27
69162;DHT22;56269;51.738;21.652;2022-09-29T12:26:25;12.42;76.68
69162;DHT22;56269;51.738;21.652;2022-09-29T12:28:59;12.55;79.64
69162;DHT22;56269;51.738;21.652;2022-09-29T12:31:35;12.37;77.70
69162;DHT22;56269;51.738;21.652;2022-09-29T12:34:33;12.46;78.17
69162;DHT22;56269;51.738;21.652;2022-09-29T12:38:34;12.49;77.72
69162;DHT22;56269;51.738;21.652;2022-09-29T12:40:34;12.37;77.22
69162;DHT22;56269;51.738;21.652;2022-09-29T12:43:31;12.35;77.18
69162;DHT22;56269;51.738;21.652;2022-09-29T12:51:52;12.35;78.68
69162;DHT22;56269;51.738;21.652;2022-09-29T12:54:27;12.75;77.99
69162;DHT22;56269;51.738;21.652;2022-09-29T12:57:15;13.42;75.11
69162;DHT22;56269;51.738;21.652;2022-09-29T12:59:57;14.17;73.79
69162;DHT22;56269;51.738;21.652;2022-09-29T13:14:09;15.93;65.02
69162;DHT22;56269;51.738;21.652;2022-09-29T13:17:07;15.45;65.78
69162;DHT22;56269;51.738;21.652;2022-09-29T13:22:41;14.45;72.47
69162;DHT22;56269;51.738;21.652;2022-09-29T13:27:48;13.54;74.23
69162;DHT22;56269;51.738;21.652;2022-09-29T13:30:17;12.92;72.38
69162;DHT22;56269;51.738;21.652;2022-09-29T13:35:22;12.51;75.97
69162;DHT22;56269;51.738;21.652;2022-09-29T13:37:51;12.27;75.39
69162;DHT22;56269;51.738;21.652;2022-09-29T13:40:22;12.14;75.86
69162;DHT22;56269;51.738;21.652;2022-09-29T13:42:50;12.07;76.08
69162;DHT22;56269;51.738;21.652;2022-09-29T13:47:51;11.74;79.11
69162;DHT22;56269;51.738;21.652;2022-09-29T13:50:43;11.62;78.85
69162;DHT22;56269;51.738;21.652;2022-09-29T13:56:16;11.56;80.50
69162;DHT22;56269;51.738;21.652;2022-09-29T14:01:11;11.49;80.52
69162;DHT22;56269;51.738;21.652;2022-09-29T14:03:44;11.53;80.40
69162;DHT22;56269;51.738;21.652;2022-09-29T14:06:17;12.25;79.15
69162;DHT22;56269;51.738;21.652;2022-09-29T14:09:11;13.19;75.77
69162;DHT22;56269;51.738;21.652;2022-09-29T14:11:46;13.64;73.63
69162;DHT22;56269;51.738;21.652;2022-09-29T14:14:37;13.73;73.78
69162;DHT22;56269;51.738;21.652;2022-09-29T14:17:12;13.53;71.22
69162;DHT22;56269;51.738;21.652;2022-09-29T14:20:01;13.89;69.29
69162;DHT22;56269;51.738;21.652;2022-09-29T14:33:21;14.63;74.14
69162;DHT22;56269;51.738;21.652;2022-09-29T14:38:32;14.56;66.83
69162;DHT22;56269;51.738;21.652;2022-09-29T14:43:41;14.17;68.46
69162;DHT22;56269;51.738;21.652;2022-09-29T15:00:53;14.24;67.45
69162;DHT22;56269;51.738;21.652;2022-09-29T15:03:34;14.21;66.84
69162;DHT22;56269;51.738;21.652;2022-09-29T15:06:04;14.19;67.16
69162;DHT22;56269;51.738;21.652;2022-09-29T15:08:31;14.11;66.36
69162;DHT22;56269;51.738;21.652;2022-09-29T15:10:58;13.84;70.77
69162;DHT22;56269;51.738;21.652;2022-09-29T15:13:27;13.23;68.71
69162;DHT22;56269;51.738;21.652;2022-09-29T15:16:09;13.43;70.11
69162;DHT22;56269;51.738;21.652;2022-09-29T15:18:50;13.30;72.66
69162;DHT22;56269;51.738;21.652;2022-09-29T15:26:42;12.99;74.94
69162;DHT22;56269;51.738;21.652;2022-09-29T15:29:14;12.99;77.18
69162;DHT22;56269;51.738;21.652;2022-09-29T15:31:44;12.75;76.37
69162;DHT22;56269;51.738;21.652;2022-09-29T15:34:16;12.72;77.73
69162;DHT22;56269;51.738;21.652;2022-09-29T15:36:46;12.25;80.12
69162;DHT22;56269;51.738;21.652;2022-09-29T15:39:41;11.84;79.94
69162;DHT22;56269;51.738;21.652;2022-09-29T15:42:14;11.51;84.85
69162;DHT22;56269;51.738;21.652;2022-09-29T15:44:46;11.22;87.15
69162;DHT22;56269;51.738;21.652;2022-09-29T15:47:33;11.00;88.74
69162;DHT22;56269;51.738;21.652;2022-09-29T15:50:24;10.77;89.57
69162;DHT22;56269;51.738;21.652;2022-09-29T15:52:48;10.41;91.08
69162;DHT22;56269;51.738;21.652;2022-09-29T15:55:18;10.12;90.51
69162;DHT22;56269;51.738;21.652;2022-09-29T15:57:47;9.77;93.37
69162;DHT22;56269;51.738;21.652;2022-09-29T16:03:11;9.35;92.71
69162;DHT22;56269;51.738;21.652;2022-09-29T16:05:42;9.23;93.27
69162;DHT22;56269;51.738;21.652;2022-09-29T16:08:16;9.17;93.05
69162;DHT22;56269;51.738;21.652;2022-09-29T16:10:53;8.99;93.54
69162;DHT22;56269;51.738;21.652;2022-09-29T16:13:23;8.84;93.64
69162;DHT22;56269;51.738;21.652;2022-09-29T16:15:56;8.86;93.65
69162;DHT22;56269;51.738;21.652;2022-09-29T16:21:06;8.26;96.30
69162;DHT22;56269;51.738;21.652;2022-09-29T16:23:46;8.05;97.92
69162;DHT22;56269;51.738;21.652;2022-09-29T16:26:19;7.88;99.47
69162;DHT22;56269;51.738;21.652;2022-09-29T16:31:45;7.67;99.99
69162;DHT22;56269;51.738;21.652;2022-09-29T16:34:22;7.59;99.99
69162;DHT22;56269;51.738;21.652;2022-09-29T16:36:59;7.52;99.99
69162;DHT22;56269;51.738;21.652;2022-09-29T16:39:31;7.40;99.99
69162;DHT22;56269;51.738;21.652;2022-09-29T16:42:01;7.37;99.99
69162;DHT22;56269;51.738;21.652;2022-09-29T16:44:32;7.32;99.99
69162;DHT22;56269;51.738;21.652;2022-09-29T16:47:12;7.33;99.99
69162;DHT22;56269;51.738;21.652;2022-09-29T16:49:54;7.40;99.99
69162;DHT22;56269;51.738;21.652;2022-09-29T16:54:48;7.33;99.99
69162;DHT22;56269;51.738;21.652;2022-09-29T16:57:18;7.29;99.99
69162;DHT22;56269;51.738;21.652;2022-09-29T16:59:54;7.20;99.99
69162;DHT22;56269;51.738;21.652;2022-09-29T17:02:21;7.19;99.99
69162;DHT22;56269;51.738;21.652;2022-09-29T17:04:48;7.16;99.99
69162;DHT22;56269;51.738;21.652;2022-09-29T17:07:16;7.12;99.99
69162;DHT22;56269;51.738;21.652;2022-09-29T17:09:52;7.11;99.99
69162;DHT22;56269;51.738;21.652;2022-09-29T17:12:21;7.11;99.99
69162;DHT22;56269;51.738;21.652;2022-09-29T17:14:47;7.08;99.99
69162;DHT22;56269;51.738;21.652;2022-09-29T17:17:26;7.11;99.99
69162;DHT22;56269;51.738;21.652;2022-09-29T17:19:54;7.11;99.99
69162;DHT22;56269;51.738;21.652;2022-09-29T17:22:30;7.16;99.99
69162;DHT22;56269;51.738;21.652;2022-09-29T17:24:57;7.15;99.99
69162;DHT22;56269;51.738;21.652;2022-09-29T17:27:24;7.16;99.99
69162;DHT22;56269;51.738;21.652;2022-09-29T17:30:12;7.12;99.99
69162;DHT22;56269;51.738;21.652;2022-09-29T17:32:45;7.06;99.99
69162;DHT22;56269;51.738;21.652;2022-09-29T17:35:13;7.03;99.99
69162;DHT22;56269;51.738;21.652;2022-09-29T17:37:40;7.02;99.99
69162;DHT22;56269;51.738;21.652;2022-09-29T17:40:36;6.98;99.99
69162;DHT22;56269;51.738;21.652;2022-09-29T17:43:06;6.96;99.99
69162;DHT22;56269;51.738;21.652;2022-09-29T17:45:32;6.87;99.99
69162;DHT22;56269;51.738;21.652;2022-09-29T17:48:01;6.84;99.99
69162;DHT22;56269;51.738;21.652;2022-09-29T17:50:33;6.84;99.99
69162;DHT22;56269;51.738;21.652;2022-09-29T17:53:02;6.81;99.99
69162;DHT22;56269;51.738;21.652;2022-09-29T17:55:32;6.78;99.99
69162;DHT22;56269;51.738;21.652;2022-09-29T17:57:59;6.72;99.99
69162;DHT22;56269;51.738;21.652;2022-09-29T18:00:29;6.67;99.99
69162;DHT22;56269;51.738;21.652;2022-09-29T18:02:56;6.64;99.99
69162;DHT22;56269;51.738;21.652;2022-09-29T18:05:26;6.50;99.99
69162;DHT22;56269;51.738;21.652;2022-09-29T18:07:53;6.33;99.99
69162;DHT22;56269;51.738;21.652;2022-09-29T18:10:30;6.21;99.99
69162;DHT22;56269;51.738;21.652;2022-09-29T18:12:59;6.17;99.99
69162;DHT22;56269;51.738;21.652;2022-09-29T18:15:26;6.10;99.99
69162;DHT22;56269;51.738;21.652;2022-09-29T18:17:57;6.05;99.99
69162;DHT22;56269;51.738;21.652;2022-09-29T18:20:24;6.09;99.99
69162;DHT22;56269;51.738;21.652;2022-09-29T18:22:50;6.03;99.99
69162;DHT22;56269;51.738;21.652;2022-09-29T18:25:18;6.06;99.99
69162;DHT22;56269;51.738;21.652;2022-09-29T18:27:45;6.09;99.99
69162;DHT22;56269;51.738;21.652;2022-09-29T18:32:43;6.27;99.99
69162;DHT22;56269;51.738;21.652;2022-09-29T18:35:13;6.36;99.99
69162;DHT22;56269;51.738;21.652;2022-09-29T18:37:40;6.41;99.99
69162;DHT22;56269;51.738;21.652;2022-09-29T18:40:06;6.44;99.99
69162;DHT22;56269;51.738;21.652;2022-09-29T18:42:32;6.48;99.99
69162;DHT22;56269;51.738;21.652;2022-09-29T18:44:59;6.55;99.99
69162;DHT22;56269;51.738;21.652;2022-09-29T18:47:25;6.60;99.99
69162;DHT22;56269;51.738;21.652;2022-09-29T18:49:51;6.63;99.99
69162;DHT22;56269;51.738;21.652;2022-09-29T18:52:18;6.65;99.99
69162;DHT22;56269;51.738;21.652;2022-09-29T18:54:43;6.70;99.99